createdAt,value
2019-03-18T01:31:35.276Z,17.37
2019-03-18T01:34:25.119Z,19.93
2019-03-18T01:37:09.183Z,23.12
2019-03-18T01:39:34.386Z,15.25
2019-03-18T01:42:04.441Z,22.95
2019-03-18T01:44:34.895Z,17.12
2019-03-18T01:47:06.393Z,18.30
2019-03-18T01:49:36.421Z,17.40
2019-03-18T01:52:06.476Z,21.55
2019-03-18T01:54:38.102Z,20.92
2019-03-18T01:57:10.177Z,16.55
2019-03-18T01:59:49.157Z,21.62
2019-03-18T02:02:32.747Z,24.95
2019-03-18T02:08:19.617Z,20.12
2019-03-18T02:20:28.891Z,20.62
2019-03-18T02:23:11.315Z,21.90
2019-03-18T02:29:19.721Z,21.48
2019-03-18T02:31:51.072Z,22.90
2019-03-18T02:34:46.498Z,22.35
2019-03-18T02:37:43.185Z,18.45
2019-03-18T02:46:32.105Z,20.70
2019-03-18T02:55:26.367Z,24.32
2019-03-18T03:04:27.188Z,22.80
2019-03-18T03:07:39.653Z,23.75
2019-03-18T03:10:23.069Z,23.12
2019-03-18T03:16:07.155Z,24.67
2019-03-18T03:21:55.410Z,23.70
2019-03-18T03:25:07.654Z,21.70
2019-03-18T03:28:07.689Z,23.18
2019-03-18T03:31:07.933Z,22.42
2019-03-18T03:43:30.418Z,21.75
2019-03-18T03:58:30.421Z,22.87
2019-03-18T04:04:28.384Z,24.98
2019-03-18T04:07:20.379Z,28.35
2019-03-18T04:10:05.542Z,20.25
2019-03-18T04:12:43.005Z,16.75
2019-03-18T04:15:21.635Z,17.37
2019-03-18T04:17:57.764Z,23.22
2019-03-18T04:20:30.710Z,18.15
2019-03-18T04:23:13.407Z,10.05
2019-03-18T04:25:50.497Z,9.28
2019-03-18T04:28:30.081Z,10.03
2019-03-18T04:31:10.588Z,11.75
2019-03-18T04:33:53.205Z,9.10
2019-03-18T04:36:37.931Z,14.38
2019-03-18T04:39:26.841Z,13.75
2019-03-18T04:42:13.324Z,11.25
2019-03-18T04:47:48.389Z,15.43
2019-03-18T04:53:42.437Z,9.15
2019-03-18T04:56:35.848Z,12.05
2019-03-18T04:59:28.087Z,14.43
2019-03-18T05:02:43.047Z,16.25
2019-03-18T05:11:28.810Z,19.37
2019-03-18T05:20:40.759Z,19.55
2019-03-18T05:35:21.507Z,18.02
2019-03-18T05:38:03.973Z,17.90
2019-03-18T05:40:55.688Z,13.43
2019-03-18T05:43:36.954Z,14.85
2019-03-18T06:01:50.367Z,13.10
2019-03-18T06:36:17.808Z,19.27
2019-03-18T09:42:28.612Z,14.38
2019-03-18T09:45:28.664Z,14.70
2019-03-18T09:47:59.212Z,17.95
2019-03-18T09:50:28.990Z,15.60
2019-03-18T09:59:09.428Z,16.45
2019-03-18T10:01:40.041Z,12.05
2019-03-18T10:10:32.986Z,13.25
2019-03-18T10:21:54.737Z,11.70
2019-03-18T10:42:21.852Z,11.05
2019-03-18T10:45:11.667Z,10.20
2019-03-18T10:50:51.059Z,11.40
2019-03-18T10:53:21.154Z,10.58
2019-03-18T10:56:25.260Z,11.20
2019-03-18T10:59:18.433Z,14.73
2019-03-18T11:01:48.238Z,12.90
2019-03-18T11:04:18.162Z,11.88
2019-03-18T11:06:50.395Z,10.25
2019-03-18T11:09:24.981Z,10.48
2019-03-18T11:11:54.915Z,16.97
2019-03-18T11:14:26.448Z,12.70
2019-03-18T11:16:56.410Z,14.07
2019-03-18T11:19:29.714Z,14.25
2019-03-18T11:22:01.184Z,14.73
2019-03-18T11:24:31.887Z,10.32
2019-03-18T11:27:04.848Z,15.32
2019-03-18T11:32:36.583Z,14.43
2019-03-18T11:38:09.353Z,11.50
2019-03-18T11:40:39.982Z,9.73
2019-03-18T11:43:10.175Z,12.03
2019-03-18T11:45:44.831Z,11.55
2019-03-18T11:48:20.007Z,9.20
2019-03-18T11:50:50.040Z,9.40
2019-03-18T11:53:40.863Z,11.35
2019-03-18T11:56:17.934Z,11.08
2019-03-18T11:59:02.179Z,14.53
2019-03-18T12:01:32.756Z,14.75
2019-03-18T12:04:12.740Z,11.63
2019-03-18T12:06:45.555Z,11.03
2019-03-18T12:12:33.832Z,9.10
2019-03-18T12:15:21.513Z,12.20
2019-03-18T12:23:55.638Z,9.53
2019-03-18T12:29:47.151Z,11.38
2019-03-18T12:32:28.344Z,8.10
2019-03-18T12:34:58.151Z,10.32
2019-03-18T12:37:29.413Z,13.93
2019-03-18T12:39:59.311Z,9.88
2019-03-18T12:42:33.341Z,11.73
2019-03-18T12:45:16.655Z,9.05
2019-03-18T12:47:47.286Z,9.78
2019-03-18T12:50:55.198Z,13.90
2019-03-18T12:53:00.257Z,11.90
2019-03-18T12:55:31.486Z,12.93
2019-03-18T12:58:01.654Z,9.75
2019-03-18T13:00:57.779Z,14.47
2019-03-18T13:09:15.782Z,13.08
2019-03-18T13:11:56.315Z,11.73
2019-03-18T13:14:28.419Z,11.95
2019-03-18T13:17:02.884Z,11.33
2019-03-18T13:19:35.603Z,12.35
2019-03-18T13:25:23.655Z,9.55
2019-03-18T13:28:10.468Z,9.95
2019-03-18T13:33:52.453Z,10.08
2019-03-18T13:36:31.223Z,11.97
2019-03-18T13:48:12.940Z,9.83
2019-03-18T13:50:46.834Z,13.05
2019-03-18T17:47:22.969Z,8.50
2019-03-18T17:49:52.805Z,9.53
2019-03-18T17:52:27.717Z,11.97
2019-03-18T17:54:57.652Z,13.98
2019-03-18T17:57:32.727Z,9.00
2019-03-18T18:02:59.264Z,9.93
2019-03-18T18:05:29.140Z,7.97
2019-03-18T18:08:02.088Z,7.83
2019-03-18T18:10:39.485Z,11.55
2019-03-18T18:13:17.029Z,6.90
2019-03-18T18:15:52.915Z,8.28
2019-03-18T18:18:27.153Z,9.98
2019-03-18T18:21:02.280Z,12.45
2019-03-18T18:23:50.625Z,9.48
